sensor_id;sensor_type;location;lat;lon;timestamp;temperature;humidity
20891;DHT22;10605;52.968;8.844;2023-09-08T00:01:57;18.00;99.90
20891;DHT22;10605;52.968;8.844;2023-09-08T00:04:22;17.90;99.90
20891;DHT22;10605;52.968;8.844;2023-09-08T00:06:49;17.80;99.90
20891;DHT22;10605;52.968;8.844;2023-09-08T00:09:15;17.80;99.90
20891;DHT22;10605;52.968;8.844;2023-09-08T00:11:40;17.80;99.90
20891;DHT22;10605;52.968;8.844;2023-09-08T00:14:06;17.80;99.90
20891;DHT22;10605;52.968;8.844;2023-09-08T00:16:32;17.80;99.90
20891;DHT22;10605;52.968;8.844;2023-09-08T00:18:58;17.80;99.90
20891;DHT22;10605;52.968;8.844;2023-09-08T00:21:25;17.70;99.90
20891;DHT22;10605;52.968;8.844;2023-09-08T00:23:51;17.60;99.90
20891;DHT22;10605;52.968;8.844;2023-09-08T00:26:17;17.60;99.90
20891;DHT22;10605;52.968;8.844;2023-09-08T00:28:43;17.60;99.90
20891;DHT22;10605;52.968;8.844;2023-09-08T00:31:08;17.60;99.90
20891;DHT22;10605;52.968;8.844;2023-09-08T00:33:34;17.60;99.90
20891;DHT22;10605;52.968;8.844;2023-09-08T00:36:00;17.50;99.90
20891;DHT22;10605;52.968;8.844;2023-09-08T00:38:26;17.50;99.90
20891;DHT22;10605;52.968;8.844;2023-09-08T00:40:51;17.60;99.90
20891;DHT22;10605;52.968;8.844;2023-09-08T00:43:17;17.60;99.90
20891;DHT22;10605;52.968;8.844;2023-09-08T00:45:45;17.60;99.90
20891;DHT22;10605;52.968;8.844;2023-09-08T00:48:11;17.60;99.90
20891;DHT22;10605;52.968;8.844;2023-09-08T00:50:38;17.60;99.90
20891;DHT22;10605;52.968;8.844;2023-09-08T00:53:05;17.50;99.90
20891;DHT22;10605;52.968;8.844;2023-09-08T00:55:31;17.60;99.90
20891;DHT22;10605;52.968;8.844;2023-09-08T00:58:01;17.40;99.90
20891;DHT22;10605;52.968;8.844;2023-09-08T01:00:27;17.40;99.90
20891;DHT22;10605;52.968;8.844;2023-09-08T01:02:53;17.30;99.90
20891;DHT22;10605;52.968;8.844;2023-09-08T01:05:19;17.20;99.90
20891;DHT22;10605;52.968;8.844;2023-09-08T01:07:46;17.20;99.90
20891;DHT22;10605;52.968;8.844;2023-09-08T01:10:13;17.20;99.90
20891;DHT22;10605;52.968;8.844;2023-09-08T01:12:40;17.10;99.90
20891;DHT22;10605;52.968;8.844;2023-09-08T01:15:06;17.10;99.90
20891;DHT22;10605;52.968;8.844;2023-09-08T01:17:32;17.10;99.90
20891;DHT22;10605;52.968;8.844;2023-09-08T01:22:44;17.00;99.90
20891;DHT22;10605;52.968;8.844;2023-09-08T01:25:23;17.00;99.90
20891;DHT22;10605;52.968;8.844;2023-09-08T01:27:53;17.00;99.90
20891;DHT22;10605;52.968;8.844;2023-09-08T01:30:21;17.10;99.90
20891;DHT22;10605;52.968;8.844;2023-09-08T01:32:49;17.20;99.90
20891;DHT22;10605;52.968;8.844;2023-09-08T01:35:15;17.10;99.90
20891;DHT22;10605;52.968;8.844;2023-09-08T01:37:44;17.10;99.90
20891;DHT22;10605;52.968;8.844;2023-09-08T01:40:10;17.10;99.90
20891;DHT22;10605;52.968;8.844;2023-09-08T01:42:39;17.00;99.90
20891;DHT22;10605;52.968;8.844;2023-09-08T01:45:06;17.00;99.90
20891;DHT22;10605;52.968;8.844;2023-09-08T01:47:32;16.90;99.90
20891;DHT22;10605;52.968;8.844;2023-09-08T01:49:58;16.90;99.90
20891;DHT22;10605;52.968;8.844;2023-09-08T01:52:25;16.80;99.90
20891;DHT22;10605;52.968;8.844;2023-09-08T01:54:51;16.80;99.90
20891;DHT22;10605;52.968;8.844;2023-09-08T01:57:17;16.80;99.90
20891;DHT22;10605;52.968;8.844;2023-09-08T01:59:43;16.80;99.90
20891;DHT22;10605;52.968;8.844;2023-09-08T02:02:13;16.70;99.90
20891;DHT22;10605;52.968;8.844;2023-09-08T02:04:39;16.70;99.90
20891;DHT22;10605;52.968;8.844;2023-09-08T02:07:05;16.70;99.90
20891;DHT22;10605;52.968;8.844;2023-09-08T02:09:32;16.60;99.90
20891;DHT22;10605;52.968;8.844;2023-09-08T02:11:58;16.60;99.90
20891;DHT22;10605;52.968;8.844;2023-09-08T02:14:24;16.60;99.90
20891;DHT22;10605;52.968;8.844;2023-09-08T02:16:49;16.60;99.90
20891;DHT22;10605;52.968;8.844;2023-09-08T02:19:15;16.50;99.90
20891;DHT22;10605;52.968;8.844;2023-09-08T02:21:41;16.50;99.90
20891;DHT22;10605;52.968;8.844;2023-09-08T02:24:06;16.50;99.90
20891;DHT22;10605;52.968;8.844;2023-09-08T02:26:32;16.50;99.90
20891;DHT22;10605;52.968;8.844;2023-09-08T02:28:59;16.40;99.90
20891;DHT22;10605;52.968;8.844;2023-09-08T02:31:27;16.40;99.90
20891;DHT22;10605;52.968;8.844;2023-09-08T02:33:53;16.30;99.90
20891;DHT22;10605;52.968;8.844;2023-09-08T02:36:18;16.30;99.90
20891;DHT22;10605;52.968;8.844;2023-09-08T02:38:52;16.30;99.90
20891;DHT22;10605;52.968;8.844;2023-09-08T02:41:17;16.30;99.90
20891;DHT22;10605;52.968;8.844;2023-09-08T02:43:43;16.30;99.90
20891;DHT22;10605;52.968;8.844;2023-09-08T02:46:08;16.20;99.90
20891;DHT22;10605;52.968;8.844;2023-09-08T02:48:35;16.20;99.90
20891;DHT22;10605;52.968;8.844;2023-09-08T02:51:00;16.10;99.90
20891;DHT22;10605;52.968;8.844;2023-09-08T02:53:26;16.20;99.90
20891;DHT22;10605;52.968;8.844;2023-09-08T02:55:54;16.10;99.90
20891;DHT22;10605;52.968;8.844;2023-09-08T02:58:20;16.10;99.90
20891;DHT22;10605;52.968;8.844;2023-09-08T03:00:46;16.00;99.90
20891;DHT22;10605;52.968;8.844;2023-09-08T03:03:11;16.00;99.90
20891;DHT22;10605;52.968;8.844;2023-09-08T03:05:37;15.90;99.90
20891;DHT22;10605;52.968;8.844;2023-09-08T03:08:03;15.90;99.90
20891;DHT22;10605;52.968;8.844;2023-09-08T03:10:28;15.90;99.90
20891;DHT22;10605;52.968;8.844;2023-09-08T03:12:54;15.90;99.90
20891;DHT22;10605;52.968;8.844;2023-09-08T03:15:20;15.80;99.90
20891;DHT22;10605;52.968;8.844;2023-09-08T03:17:46;15.80;99.90
20891;DHT22;10605;52.968;8.844;2023-09-08T03:20:12;15.80;99.90
20891;DHT22;10605;52.968;8.844;2023-09-08T03:22:39;15.80;99.90
20891;DHT22;10605;52.968;8.844;2023-09-08T03:25:05;15.70;99.90
20891;DHT22;10605;52.968;8.844;2023-09-08T03:27:31;15.70;99.90
20891;DHT22;10605;52.968;8.844;2023-09-08T03:29:56;15.70;99.90
20891;DHT22;10605;52.968;8.844;2023-09-08T03:32:22;15.70;99.90
20891;DHT22;10605;52.968;8.844;2023-09-08T03:34:48;15.60;99.90
20891;DHT22;10605;52.968;8.844;2023-09-08T03:37:13;15.60;99.90
20891;DHT22;10605;52.968;8.844;2023-09-08T03:39:41;15.50;99.90
20891;DHT22;10605;52.968;8.844;2023-09-08T03:42:06;15.50;99.90
20891;DHT22;10605;52.968;8.844;2023-09-08T03:44:32;15.50;99.90
20891;DHT22;10605;52.968;8.844;2023-09-08T03:46:57;15.50;99.90
20891;DHT22;10605;52.968;8.844;2023-09-08T03:49:23;15.40;99.90
20891;DHT22;10605;52.968;8.844;2023-09-08T03:51:49;15.40;99.90
20891;DHT22;10605;52.968;8.844;2023-09-08T03:54:14;15.40;99.90
20891;DHT22;10605;52.968;8.844;2023-09-08T03:56:40;15.40;99.90
20891;DHT22;10605;52.968;8.844;2023-09-08T03:59:06;15.40;99.90
20891;DHT22;10605;52.968;8.844;2023-09-08T04:01:31;15.30;99.90
20891;DHT22;10605;52.968;8.844;2023-09-08T04:03:57;15.30;99.90
20891;DHT22;10605;52.968;8.844;2023-09-08T04:06:22;15.30;99.90
20891;DHT22;10605;52.968;8.844;2023-09-08T04:08:49;15.20;99.90
20891;DHT22;10605;52.968;8.844;2023-09-08T04:11:15;15.20;99.90
20891;DHT22;10605;52.968;8.844;2023-09-08T04:13:41;15.20;99.90
20891;DHT22;10605;52.968;8.844;2023-09-08T04:16:06;15.20;99.90
20891;DHT22;10605;52.968;8.844;2023-09-08T04:18:32;15.20;99.90
20891;DHT22;10605;52.968;8.844;2023-09-08T04:20:57;15.20;99.90
20891;DHT22;10605;52.968;8.844;2023-09-08T04:23:23;15.20;99.90
20891;DHT22;10605;52.968;8.844;2023-09-08T04:25:49;15.20;99.90
20891;DHT22;10605;52.968;8.844;2023-09-08T04:28:14;15.10;99.90
20891;DHT22;10605;52.968;8.844;2023-09-08T04:30:40;15.10;99.90
20891;DHT22;10605;52.968;8.844;2023-09-08T04:33:05;15.10;99.90
20891;DHT22;10605;52.968;8.844;2023-09-08T04:35:31;15.10;99.90
20891;DHT22;10605;52.968;8.844;2023-09-08T04:37:57;15.10;99.90
20891;DHT22;10605;52.968;8.844;2023-09-08T04:40:23;15.00;99.90
20891;DHT22;10605;52.968;8.844;2023-09-08T04:42:48;15.00;99.90
20891;DHT22;10605;52.968;8.844;2023-09-08T04:45:14;15.10;99.90
20891;DHT22;10605;52.968;8.844;2023-09-08T04:47:39;15.10;99.90
20891;DHT22;10605;52.968;8.844;2023-09-08T04:50:05;15.00;99.90
20891;DHT22;10605;52.968;8.844;2023-09-08T04:52:31;15.00;99.90
20891;DHT22;10605;52.968;8.844;2023-09-08T04:54:57;15.10;99.90
20891;DHT22;10605;52.968;8.844;2023-09-08T04:57:22;15.10;99.90
20891;DHT22;10605;52.968;8.844;2023-09-08T04:59:48;15.10;99.90
20891;DHT22;10605;52.968;8.844;2023-09-08T05:02:14;15.10;99.90
20891;DHT22;10605;52.968;8.844;2023-09-08T05:04:40;15.20;99.90
20891;DHT22;10605;52.968;8.844;2023-09-08T05:07:06;15.20;99.90
20891;DHT22;10605;52.968;8.844;2023-09-08T05:09:31;15.20;99.90
20891;DHT22;10605;52.968;8.844;2023-09-08T05:11:58;15.30;99.90
20891;DHT22;10605;52.968;8.844;2023-09-08T05:14:27;15.40;99.90
20891;DHT22;10605;52.968;8.844;2023-09-08T05:17:02;15.50;99.90
20891;DHT22;10605;52.968;8.844;2023-09-08T05:19:34;15.60;99.90
20891;DHT22;10605;52.968;8.844;2023-09-08T05:22:19;15.80;99.90
20891;DHT22;10605;52.968;8.844;2023-09-08T05:25:24;16.00;99.90
20891;DHT22;10605;52.968;8.844;2023-09-08T05:35:27;16.80;99.90
20891;DHT22;10605;52.968;8.844;2023-09-08T05:39:09;17.20;99.90
20891;DHT22;10605;52.968;8.844;2023-09-08T05:46:08;17.60;99.90
20891;DHT22;10605;52.968;8.844;2023-09-08T05:57:06;17.90;99.90
20891;DHT22;10605;52.968;8.844;2023-09-08T06:03:56;18.30;99.90
20891;DHT22;10605;52.968;8.844;2023-09-08T06:21:32;19.60;99.90
20891;DHT22;10605;52.968;8.844;2023-09-08T06:25:08;19.90;99.90
20891;DHT22;10605;52.968;8.844;2023-09-08T06:27:41;20.20;99.90
20891;DHT22;10605;52.968;8.844;2023-09-08T06:30:40;20.50;99.90
20891;DHT22;10605;52.968;8.844;2023-09-08T06:34:14;20.80;99.90
20891;DHT22;10605;52.968;8.844;2023-09-08T06:36:41;21.20;99.90
20891;DHT22;10605;52.968;8.844;2023-09-08T06:39:37;21.50;99.90
20891;DHT22;10605;52.968;8.844;2023-09-08T06:42:10;21.70;99.90
20891;DHT22;10605;52.968;8.844;2023-09-08T06:48:11;22.30;99.90
20891;DHT22;10605;52.968;8.844;2023-09-08T06:51:51;22.60;99.90
20891;DHT22;10605;52.968;8.844;2023-09-08T06:54:45;23.00;99.90
20891;DHT22;10605;52.968;8.844;2023-09-08T07:01:26;23.40;99.90
20891;DHT22;10605;52.968;8.844;2023-09-08T07:03:53;23.80;99.90
20891;DHT22;10605;52.968;8.844;2023-09-08T07:06:38;24.20;99.90
20891;DHT22;10605;52.968;8.844;2023-09-08T07:09:33;24.40;99.90
20891;DHT22;10605;52.968;8.844;2023-09-08T07:12:44;24.80;99.90
20891;DHT22;10605;52.968;8.844;2023-09-08T07:15:10;25.20;99.90
20891;DHT22;10605;52.968;8.844;2023-09-08T07:17:38;25.40;99.90
20891;DHT22;10605;52.968;8.844;2023-09-08T07:20:20;25.50;99.90
20891;DHT22;10605;52.968;8.844;2023-09-08T07:22:52;25.70;99.90
20891;DHT22;10605;52.968;8.844;2023-09-08T07:25:25;25.70;99.90
20891;DHT22;10605;52.968;8.844;2023-09-08T07:27:51;25.80;99.90
20891;DHT22;10605;52.968;8.844;2023-09-08T07:30:23;26.00;99.90
20891;DHT22;10605;52.968;8.844;2023-09-08T07:32:52;26.20;99.90
20891;DHT22;10605;52.968;8.844;2023-09-08T07:35:40;26.60;99.90
20891;DHT22;10605;52.968;8.844;2023-09-08T07:39:12;26.70;99.90
20891;DHT22;10605;52.968;8.844;2023-09-08T07:42:30;27.10;99.90
20891;DHT22;10605;52.968;8.844;2023-09-08T07:46:11;27.20;99.90
20891;DHT22;10605;52.968;8.844;2023-09-08T07:52:37;28.10;99.90
20891;DHT22;10605;52.968;8.844;2023-09-08T07:55:27;27.80;99.90
20891;DHT22;10605;52.968;8.844;2023-09-08T07:58:34;28.10;99.90
20891;DHT22;10605;52.968;8.844;2023-09-08T08:02:01;28.10;99.90
20891;DHT22;10605;52.968;8.844;2023-09-08T08:05:06;28.60;99.90
20891;DHT22;10605;52.968;8.844;2023-09-08T08:08:14;28.50;99.90
20891;DHT22;10605;52.968;8.844;2023-09-08T08:11:27;28.80;99.90
20891;DHT22;10605;52.968;8.844;2023-09-08T08:14:34;28.80;99.90
20891;DHT22;10605;52.968;8.844;2023-09-08T08:17:02;29.00;99.90
20891;DHT22;10605;52.968;8.844;2023-09-08T08:23:42;30.10;99.90
20891;DHT22;10605;52.968;8.844;2023-09-08T08:26:08;30.20;99.90
20891;DHT22;10605;52.968;8.844;2023-09-08T08:28:34;30.40;99.90
20891;DHT22;10605;52.968;8.844;2023-09-08T08:31:00;30.40;99.90
20891;DHT22;10605;52.968;8.844;2023-09-08T08:33:25;30.20;99.90
20891;DHT22;10605;52.968;8.844;2023-09-08T08:35:54;30.60;99.90
20891;DHT22;10605;52.968;8.844;2023-09-08T08:38:19;31.00;99.90
20891;DHT22;10605;52.968;8.844;2023-09-08T08:40:45;31.30;99.90
20891;DHT22;10605;52.968;8.844;2023-09-08T08:43:12;31.50;99.90
20891;DHT22;10605;52.968;8.844;2023-09-08T08:45:38;31.80;99.30
20891;DHT22;10605;52.968;8.844;2023-09-08T08:48:06;31.60;96.00
20891;DHT22;10605;52.968;8.844;2023-09-08T08:50:35;31.90;96.70
20891;DHT22;10605;52.968;8.844;2023-09-08T08:53:01;32.50;96.70
20891;DHT22;10605;52.968;8.844;2023-09-08T08:55:30;32.60;94.70
20891;DHT22;10605;52.968;8.844;2023-09-08T08:58:03;32.90;93.30
20891;DHT22;10605;52.968;8.844;2023-09-08T09:00:29;33.00;93.50
20891;DHT22;10605;52.968;8.844;2023-09-08T09:02:55;33.60;92.20
20891;DHT22;10605;52.968;8.844;2023-09-08T09:05:24;33.60;89.50
20891;DHT22;10605;52.968;8.844;2023-09-08T09:07:50;34.00;89.10
20891;DHT22;10605;52.968;8.844;2023-09-08T09:10:17;34.40;88.80
20891;DHT22;10605;52.968;8.844;2023-09-08T09:12:43;34.30;85.20
20891;DHT22;10605;52.968;8.844;2023-09-08T09:15:09;34.60;82.70
20891;DHT22;10605;52.968;8.844;2023-09-08T09:17:36;34.70;81.70
20891;DHT22;10605;52.968;8.844;2023-09-08T09:20:32;35.20;82.10
20891;DHT22;10605;52.968;8.844;2023-09-08T09:22:58;35.50;77.90
20891;DHT22;10605;52.968;8.844;2023-09-08T09:25:27;35.60;73.30
20891;DHT22;10605;52.968;8.844;2023-09-08T09:27:55;36.00;76.30
20891;DHT22;10605;52.968;8.844;2023-09-08T09:30:23;35.80;70.40
20891;DHT22;10605;52.968;8.844;2023-09-08T09:33:00;36.20;75.60
20891;DHT22;10605;52.968;8.844;2023-09-08T09:35:43;36.60;69.90
20891;DHT22;10605;52.968;8.844;2023-09-08T09:38:09;36.70;68.80
20891;DHT22;10605;52.968;8.844;2023-09-08T09:43:01;37.40;67.30
20891;DHT22;10605;52.968;8.844;2023-09-08T09:45:34;37.80;63.30
20891;DHT22;10605;52.968;8.844;2023-09-08T09:48:01;37.50;60.50
20891;DHT22;10605;52.968;8.844;2023-09-08T09:50:31;37.70;62.30
20891;DHT22;10605;52.968;8.844;2023-09-08T09:53:14;38.00;59.70
20891;DHT22;10605;52.968;8.844;2023-09-08T09:55:42;38.00;58.50
20891;DHT22;10605;52.968;8.844;2023-09-08T09:58:09;38.30;55.00
20891;DHT22;10605;52.968;8.844;2023-09-08T10:00:36;38.20;53.50
20891;DHT22;10605;52.968;8.844;2023-09-08T10:03:04;38.40;53.70
20891;DHT22;10605;52.968;8.844;2023-09-08T10:05:30;39.00;53.30
20891;DHT22;10605;52.968;8.844;2023-09-08T10:07:56;39.30;51.80
20891;DHT22;10605;52.968;8.844;2023-09-08T10:10:26;39.40;51.30
20891;DHT22;10605;52.968;8.844;2023-09-08T10:12:54;39.80;50.10
20891;DHT22;10605;52.968;8.844;2023-09-08T10:15:34;40.20;48.10
20891;DHT22;10605;52.968;8.844;2023-09-08T10:18:04;39.80;47.50
20891;DHT22;10605;52.968;8.844;2023-09-08T10:20:30;40.30;47.80
20891;DHT22;10605;52.968;8.844;2023-09-08T10:23:12;40.00;43.90
20891;DHT22;10605;52.968;8.844;2023-09-08T10:25:46;40.30;44.80
20891;DHT22;10605;52.968;8.844;2023-09-08T10:28:19;40.20;44.10
20891;DHT22;10605;52.968;8.844;2023-09-08T10:30:45;39.90;45.00
20891;DHT22;10605;52.968;8.844;2023-09-08T10:33:12;40.30;44.50
20891;DHT22;10605;52.968;8.844;2023-09-08T10:35:39;40.40;41.70
20891;DHT22;10605;52.968;8.844;2023-09-08T10:38:25;41.00;45.10
20891;DHT22;10605;52.968;8.844;2023-09-08T10:40:52;41.10;40.10
20891;DHT22;10605;52.968;8.844;2023-09-08T10:43:18;41.40;42.00
20891;DHT22;10605;52.968;8.844;2023-09-08T10:45:46;41.80;42.20
20891;DHT22;10605;52.968;8.844;2023-09-08T10:48:13;41.90;39.00
20891;DHT22;10605;52.968;8.844;2023-09-08T10:50:41;41.90;37.90
20891;DHT22;10605;52.968;8.844;2023-09-08T10:53:18;41.30;39.90
20891;DHT22;10605;52.968;8.844;2023-09-08T10:55:45;41.60;39.10
20891;DHT22;10605;52.968;8.844;2023-09-08T10:58:33;41.40;37.10
20891;DHT22;10605;52.968;8.844;2023-09-08T11:01:01;41.90;38.40
20891;DHT22;10605;52.968;8.844;2023-09-08T11:06:05;41.70;36.30
20891;DHT22;10605;52.968;8.844;2023-09-08T11:08:37;42.00;36.10
20891;DHT22;10605;52.968;8.844;2023-09-08T11:11:07;41.60;38.20
20891;DHT22;10605;52.968;8.844;2023-09-08T11:13:36;42.00;36.90
20891;DHT22;10605;52.968;8.844;2023-09-08T11:16:07;42.40;36.60
20891;DHT22;10605;52.968;8.844;2023-09-08T11:18:37;42.70;37.00
20891;DHT22;10605;52.968;8.844;2023-09-08T11:21:07;43.10;33.40
20891;DHT22;10605;52.968;8.844;2023-09-08T11:23:36;43.10;33.10
20891;DHT22;10605;52.968;8.844;2023-09-08T11:26:02;42.30;33.90
20891;DHT22;10605;52.968;8.844;2023-09-08T11:28:29;41.10;33.20
20891;DHT22;10605;52.968;8.844;2023-09-08T11:30:55;40.70;33.40
20891;DHT22;10605;52.968;8.844;2023-09-08T11:33:22;41.50;33.90
20891;DHT22;10605;52.968;8.844;2023-09-08T11:35:54;41.90;32.90
20891;DHT22;10605;52.968;8.844;2023-09-08T11:38:29;41.90;32.20
20891;DHT22;10605;52.968;8.844;2023-09-08T11:40:58;41.90;34.00
20891;DHT22;10605;52.968;8.844;2023-09-08T11:43:25;42.20;33.60
20891;DHT22;10605;52.968;8.844;2023-09-08T11:45:51;42.70;32.20
20891;DHT22;10605;52.968;8.844;2023-09-08T11:48:18;42.90;31.80
20891;DHT22;10605;52.968;8.844;2023-09-08T11:50:45;43.20;32.40
20891;DHT22;10605;52.968;8.844;2023-09-08T11:53:11;42.50;32.10
20891;DHT22;10605;52.968;8.844;2023-09-08T11:55:40;42.00;30.00
20891;DHT22;10605;52.968;8.844;2023-09-08T11:58:14;42.10;32.00
20891;DHT22;10605;52.968;8.844;2023-09-08T12:00:43;41.90;34.20
20891;DHT22;10605;52.968;8.844;2023-09-08T12:03:15;42.40;32.00
20891;DHT22;10605;52.968;8.844;2023-09-08T12:05:43;42.00;31.80
20891;DHT22;10605;52.968;8.844;2023-09-08T12:08:09;42.70;32.60
20891;DHT22;10605;52.968;8.844;2023-09-08T12:10:39;43.30;31.90
20891;DHT22;10605;52.968;8.844;2023-09-08T12:13:06;43.50;30.50
20891;DHT22;10605;52.968;8.844;2023-09-08T12:15:33;43.70;32.40
20891;DHT22;10605;52.968;8.844;2023-09-08T12:18:08;43.10;30.50
20891;DHT22;10605;52.968;8.844;2023-09-08T12:20:35;43.50;30.80
20891;DHT22;10605;52.968;8.844;2023-09-08T12:23:21;43.10;31.10
20891;DHT22;10605;52.968;8.844;2023-09-08T12:25:53;42.70;30.90
20891;DHT22;10605;52.968;8.844;2023-09-08T12:28:21;42.40;30.70
20891;DHT22;10605;52.968;8.844;2023-09-08T12:30:49;42.40;30.40
20891;DHT22;10605;52.968;8.844;2023-09-08T12:33:19;41.70;32.00
20891;DHT22;10605;52.968;8.844;2023-09-08T12:35:52;41.40;31.80
20891;DHT22;10605;52.968;8.844;2023-09-08T12:38:21;42.00;31.80
20891;DHT22;10605;52.968;8.844;2023-09-08T12:40:50;42.40;31.80
20891;DHT22;10605;52.968;8.844;2023-09-08T12:43:16;41.60;32.50
20891;DHT22;10605;52.968;8.844;2023-09-08T12:45:42;42.00;32.60
20891;DHT22;10605;52.968;8.844;2023-09-08T12:48:08;41.80;30.70
20891;DHT22;10605;52.968;8.844;2023-09-08T12:50:34;41.30;30.00
20891;DHT22;10605;52.968;8.844;2023-09-08T12:52:59;40.90;30.90
20891;DHT22;10605;52.968;8.844;2023-09-08T12:55:25;40.30;31.50
20891;DHT22;10605;52.968;8.844;2023-09-08T12:57:52;39.30;32.00
20891;DHT22;10605;52.968;8.844;2023-09-08T13:00:23;38.20;36.00
20891;DHT22;10605;52.968;8.844;2023-09-08T13:02:50;35.80;39.60
20891;DHT22;10605;52.968;8.844;2023-09-08T13:05:16;34.50;41.50
20891;DHT22;10605;52.968;8.844;2023-09-08T13:07:42;33.50;45.20
20891;DHT22;10605;52.968;8.844;2023-09-08T13:10:08;32.80;47.20
20891;DHT22;10605;52.968;8.844;2023-09-08T13:12:34;32.30;48.70
20891;DHT22;10605;52.968;8.844;2023-09-08T13:15:00;32.00;53.00
20891;DHT22;10605;52.968;8.844;2023-09-08T13:17:25;31.70;54.20
20891;DHT22;10605;52.968;8.844;2023-09-08T13:19:51;31.50;52.60
20891;DHT22;10605;52.968;8.844;2023-09-08T13:22:18;31.30;56.90
20891;DHT22;10605;52.968;8.844;2023-09-08T13:24:44;31.10;58.90
20891;DHT22;10605;52.968;8.844;2023-09-08T13:27:10;30.90;55.60
20891;DHT22;10605;52.968;8.844;2023-09-08T13:29:37;30.80;58.00
20891;DHT22;10605;52.968;8.844;2023-09-08T13:32:04;30.80;56.50
20891;DHT22;10605;52.968;8.844;2023-09-08T13:34:30;30.60;55.50
20891;DHT22;10605;52.968;8.844;2023-09-08T13:36:58;30.50;57.90
20891;DHT22;10605;52.968;8.844;2023-09-08T13:39:23;30.40;57.50
20891;DHT22;10605;52.968;8.844;2023-09-08T13:41:51;30.40;60.60
20891;DHT22;10605;52.968;8.844;2023-09-08T13:44:18;30.50;59.70
20891;DHT22;10605;52.968;8.844;2023-09-08T13:46:46;30.40;57.50
20891;DHT22;10605;52.968;8.844;2023-09-08T13:49:12;30.50;59.20
20891;DHT22;10605;52.968;8.844;2023-09-08T13:51:38;30.50;61.30
20891;DHT22;10605;52.968;8.844;2023-09-08T13:54:10;30.40;58.40
20891;DHT22;10605;52.968;8.844;2023-09-08T13:56:58;30.30;57.10
20891;DHT22;10605;52.968;8.844;2023-09-08T13:59:26;30.30;61.10
20891;DHT22;10605;52.968;8.844;2023-09-08T14:01:58;30.20;62.10
20891;DHT22;10605;52.968;8.844;2023-09-08T14:04:47;30.30;59.70
20891;DHT22;10605;52.968;8.844;2023-09-08T14:07:16;30.20;60.30
20891;DHT22;10605;52.968;8.844;2023-09-08T14:09:42;30.10;58.90
20891;DHT22;10605;52.968;8.844;2023-09-08T14:12:08;30.10;58.50
20891;DHT22;10605;52.968;8.844;2023-09-08T14:14:35;30.10;59.70
20891;DHT22;10605;52.968;8.844;2023-09-08T14:17:05;30.10;61.50
20891;DHT22;10605;52.968;8.844;2023-09-08T14:19:33;30.10;62.40
20891;DHT22;10605;52.968;8.844;2023-09-08T14:22:01;30.10;62.50
20891;DHT22;10605;52.968;8.844;2023-09-08T14:24:38;30.00;61.90
20891;DHT22;10605;52.968;8.844;2023-09-08T14:27:04;30.10;63.50
20891;DHT22;10605;52.968;8.844;2023-09-08T14:29:36;30.00;61.70
20891;DHT22;10605;52.968;8.844;2023-09-08T14:32:15;30.00;60.20
20891;DHT22;10605;52.968;8.844;2023-09-08T14:34:48;29.90;61.10
20891;DHT22;10605;52.968;8.844;2023-09-08T14:37:17;29.90;64.70
20891;DHT22;10605;52.968;8.844;2023-09-08T14:39:52;29.90;68.30
20891;DHT22;10605;52.968;8.844;2023-09-08T14:42:24;29.80;65.50
20891;DHT22;10605;52.968;8.844;2023-09-08T14:44:50;29.80;66.70
20891;DHT22;10605;52.968;8.844;2023-09-08T14:47:17;29.70;65.30
20891;DHT22;10605;52.968;8.844;2023-09-08T14:49:44;29.70;67.10
20891;DHT22;10605;52.968;8.844;2023-09-08T14:52:11;29.60;66.70
20891;DHT22;10605;52.968;8.844;2023-09-08T14:54:59;29.60;65.90
20891;DHT22;10605;52.968;8.844;2023-09-08T14:57:26;29.60;66.30
20891;DHT22;10605;52.968;8.844;2023-09-08T14:59:53;29.50;66.60
20891;DHT22;10605;52.968;8.844;2023-09-08T15:02:22;29.50;66.30
20891;DHT22;10605;52.968;8.844;2023-09-08T15:04:50;29.50;69.20
20891;DHT22;10605;52.968;8.844;2023-09-08T15:07:16;29.50;70.40
20891;DHT22;10605;52.968;8.844;2023-09-08T15:09:45;29.50;69.70
20891;DHT22;10605;52.968;8.844;2023-09-08T15:12:38;29.40;69.00
20891;DHT22;10605;52.968;8.844;2023-09-08T15:19:14;29.30;68.20
20891;DHT22;10605;52.968;8.844;2023-09-08T15:21:55;29.20;69.20
20891;DHT22;10605;52.968;8.844;2023-09-08T15:35:28;29.00;68.80
20891;DHT22;10605;52.968;8.844;2023-09-08T15:38:39;29.00;69.20
20891;DHT22;10605;52.968;8.844;2023-09-08T15:41:23;29.00;72.80
20891;DHT22;10605;52.968;8.844;2023-09-08T15:45:01;28.90;70.10
20891;DHT22;10605;52.968;8.844;2023-09-08T15:48:16;28.90;73.30
20891;DHT22;10605;52.968;8.844;2023-09-08T15:51:18;28.70;73.80
20891;DHT22;10605;52.968;8.844;2023-09-08T15:54:16;28.70;71.80
20891;DHT22;10605;52.968;8.844;2023-09-08T15:57:07;28.70;73.90
20891;DHT22;10605;52.968;8.844;2023-09-08T15:59:36;28.60;74.30
20891;DHT22;10605;52.968;8.844;2023-09-08T16:02:23;28.60;73.50
20891;DHT22;10605;52.968;8.844;2023-09-08T16:05:41;28.50;75.60
20891;DHT22;10605;52.968;8.844;2023-09-08T16:09:12;28.50;73.20
20891;DHT22;10605;52.968;8.844;2023-09-08T16:15:48;28.30;79.00
20891;DHT22;10605;52.968;8.844;2023-09-08T16:18:58;28.20;77.00
20891;DHT22;10605;52.968;8.844;2023-09-08T16:33:00;27.90;78.30
20891;DHT22;10605;52.968;8.844;2023-09-08T16:36:26;27.80;79.50
20891;DHT22;10605;52.968;8.844;2023-09-08T16:39:33;27.80;80.70
20891;DHT22;10605;52.968;8.844;2023-09-08T16:42:40;27.70;82.10
20891;DHT22;10605;52.968;8.844;2023-09-08T16:45:58;27.60;82.00
20891;DHT22;10605;52.968;8.844;2023-09-08T16:48:43;27.50;84.90
20891;DHT22;10605;52.968;8.844;2023-09-08T16:52:15;27.40;85.10
20891;DHT22;10605;52.968;8.844;2023-09-08T16:55:43;27.30;87.30
20891;DHT22;10605;52.968;8.844;2023-09-08T16:59:07;27.10;89.50
20891;DHT22;10605;52.968;8.844;2023-09-08T17:16:25;26.50;92.40
20891;DHT22;10605;52.968;8.844;2023-09-08T17:23:05;26.10;98.00
20891;DHT22;10605;52.968;8.844;2023-09-08T17:26:05;25.90;99.90
20891;DHT22;10605;52.968;8.844;2023-09-08T17:28:57;25.80;99.10
20891;DHT22;10605;52.968;8.844;2023-09-08T17:32:16;25.70;99.80
20891;DHT22;10605;52.968;8.844;2023-09-08T17:39:03;25.30;99.90
20891;DHT22;10605;52.968;8.844;2023-09-08T17:42:26;25.10;99.90
20891;DHT22;10605;52.968;8.844;2023-09-08T17:45:40;24.80;99.90
20891;DHT22;10605;52.968;8.844;2023-09-08T17:48:34;24.50;99.90
20891;DHT22;10605;52.968;8.844;2023-09-08T17:51:03;24.30;99.90
20891;DHT22;10605;52.968;8.844;2023-09-08T17:53:33;24.20;99.90
20891;DHT22;10605;52.968;8.844;2023-09-08T17:56:02;24.00;99.90
20891;DHT22;10605;52.968;8.844;2023-09-08T17:58:40;23.90;99.90
20891;DHT22;10605;52.968;8.844;2023-09-08T18:01:38;23.80;99.90
20891;DHT22;10605;52.968;8.844;2023-09-08T18:04:52;23.60;99.90
20891;DHT22;10605;52.968;8.844;2023-09-08T18:08:09;23.40;99.90
20891;DHT22;10605;52.968;8.844;2023-09-08T18:14:26;23.00;99.90